sensor_id;sensor_type;location;lat;lon;timestamp;temperature;humidity
66328;DHT22;53133;52.862;6.602;2023-07-22T00:02:13;14.90;99.90
66328;DHT22;53133;52.862;6.602;2023-07-22T00:04:38;14.80;99.90
66328;DHT22;53133;52.862;6.602;2023-07-22T00:07:04;14.80;99.90
66328;DHT22;53133;52.862;6.602;2023-07-22T00:09:32;14.70;99.90
66328;DHT22;53133;52.862;6.602;2023-07-22T00:11:59;14.70;99.90
66328;DHT22;53133;52.862;6.602;2023-07-22T00:14:25;14.60;99.90
66328;DHT22;53133;52.862;6.602;2023-07-22T00:16:51;14.60;99.90
66328;DHT22;53133;52.862;6.602;2023-07-22T00:19:16;14.50;99.90
66328;DHT22;53133;52.862;6.602;2023-07-22T00:21:42;14.50;99.90
66328;DHT22;53133;52.862;6.602;2023-07-22T00:24:07;14.40;99.90
66328;DHT22;53133;52.862;6.602;2023-07-22T00:26:33;14.40;99.90
66328;DHT22;53133;52.862;6.602;2023-07-22T00:28:59;14.40;99.90
66328;DHT22;53133;52.862;6.602;2023-07-22T00:31:25;14.40;99.90
66328;DHT22;53133;52.862;6.602;2023-07-22T00:33:51;14.30;99.90
66328;DHT22;53133;52.862;6.602;2023-07-22T00:36:16;14.30;99.90
66328;DHT22;53133;52.862;6.602;2023-07-22T00:38:42;14.20;99.90
66328;DHT22;53133;52.862;6.602;2023-07-22T00:41:08;14.20;99.90
66328;DHT22;53133;52.862;6.602;2023-07-22T00:43:34;14.20;99.90
66328;DHT22;53133;52.862;6.602;2023-07-22T00:45:59;14.20;99.90
66328;DHT22;53133;52.862;6.602;2023-07-22T00:48:26;14.20;99.90
66328;DHT22;53133;52.862;6.602;2023-07-22T00:50:52;14.20;99.90
66328;DHT22;53133;52.862;6.602;2023-07-22T00:53:18;14.10;99.90
66328;DHT22;53133;52.862;6.602;2023-07-22T00:55:45;14.10;99.90
66328;DHT22;53133;52.862;6.602;2023-07-22T00:58:10;14.10;99.90
66328;DHT22;53133;52.862;6.602;2023-07-22T01:00:36;14.10;99.90
66328;DHT22;53133;52.862;6.602;2023-07-22T01:03:02;14.00;99.90
66328;DHT22;53133;52.862;6.602;2023-07-22T01:05:29;14.00;99.90
66328;DHT22;53133;52.862;6.602;2023-07-22T01:07:56;13.90;99.90
66328;DHT22;53133;52.862;6.602;2023-07-22T01:10:22;13.90;99.90
66328;DHT22;53133;52.862;6.602;2023-07-22T01:12:48;13.90;99.90
66328;DHT22;53133;52.862;6.602;2023-07-22T01:15:14;13.80;99.90
66328;DHT22;53133;52.862;6.602;2023-07-22T01:17:39;13.80;99.90
66328;DHT22;53133;52.862;6.602;2023-07-22T01:20:06;13.80;99.90
66328;DHT22;53133;52.862;6.602;2023-07-22T01:22:33;13.80;99.90
66328;DHT22;53133;52.862;6.602;2023-07-22T01:25:00;13.80;99.90
66328;DHT22;53133;52.862;6.602;2023-07-22T01:27:26;13.80;99.90
66328;DHT22;53133;52.862;6.602;2023-07-22T01:29:52;13.80;99.90
66328;DHT22;53133;52.862;6.602;2023-07-22T01:32:18;13.80;99.90
66328;DHT22;53133;52.862;6.602;2023-07-22T01:34:45;13.80;99.90
66328;DHT22;53133;52.862;6.602;2023-07-22T01:37:11;13.70;99.90
66328;DHT22;53133;52.862;6.602;2023-07-22T01:39:37;13.70;99.90
66328;DHT22;53133;52.862;6.602;2023-07-22T01:42:03;13.70;99.90
66328;DHT22;53133;52.862;6.602;2023-07-22T01:44:29;13.70;99.90
66328;DHT22;53133;52.862;6.602;2023-07-22T01:46:55;13.60;99.90
66328;DHT22;53133;52.862;6.602;2023-07-22T01:49:21;13.60;99.90
66328;DHT22;53133;52.862;6.602;2023-07-22T01:51:49;13.60;99.90
66328;DHT22;53133;52.862;6.602;2023-07-22T01:54:15;13.50;99.90
66328;DHT22;53133;52.862;6.602;2023-07-22T01:56:41;13.50;99.90
66328;DHT22;53133;52.862;6.602;2023-07-22T01:59:06;13.50;99.90
66328;DHT22;53133;52.862;6.602;2023-07-22T02:01:32;13.40;99.90
66328;DHT22;53133;52.862;6.602;2023-07-22T02:03:58;13.40;99.90
66328;DHT22;53133;52.862;6.602;2023-07-22T02:06:24;13.40;99.90
66328;DHT22;53133;52.862;6.602;2023-07-22T02:08:49;13.40;99.90
66328;DHT22;53133;52.862;6.602;2023-07-22T02:11:15;13.40;99.90
66328;DHT22;53133;52.862;6.602;2023-07-22T02:13:41;13.40;99.90
66328;DHT22;53133;52.862;6.602;2023-07-22T02:16:07;13.40;99.90
66328;DHT22;53133;52.862;6.602;2023-07-22T02:18:32;13.40;99.90
66328;DHT22;53133;52.862;6.602;2023-07-22T02:20:58;13.40;99.90
66328;DHT22;53133;52.862;6.602;2023-07-22T02:23:24;13.30;99.90
66328;DHT22;53133;52.862;6.602;2023-07-22T02:25:53;13.40;99.90
66328;DHT22;53133;52.862;6.602;2023-07-22T02:28:20;13.40;99.90
66328;DHT22;53133;52.862;6.602;2023-07-22T02:30:51;13.30;99.90
66328;DHT22;53133;52.862;6.602;2023-07-22T02:33:18;13.30;99.90
66328;DHT22;53133;52.862;6.602;2023-07-22T02:35:44;13.30;99.90
66328;DHT22;53133;52.862;6.602;2023-07-22T02:38:10;13.30;99.90
66328;DHT22;53133;52.862;6.602;2023-07-22T02:40:36;13.20;99.90
66328;DHT22;53133;52.862;6.602;2023-07-22T02:43:03;13.30;99.90
66328;DHT22;53133;52.862;6.602;2023-07-22T02:45:29;13.30;99.90
66328;DHT22;53133;52.862;6.602;2023-07-22T02:47:55;13.30;99.90
66328;DHT22;53133;52.862;6.602;2023-07-22T02:50:21;13.30;99.90
66328;DHT22;53133;52.862;6.602;2023-07-22T02:52:46;13.30;99.90
66328;DHT22;53133;52.862;6.602;2023-07-22T02:55:14;13.30;99.90
66328;DHT22;53133;52.862;6.602;2023-07-22T02:57:40;13.30;99.90
66328;DHT22;53133;52.862;6.602;2023-07-22T03:00:07;13.30;99.90
66328;DHT22;53133;52.862;6.602;2023-07-22T03:02:37;13.40;99.90
66328;DHT22;53133;52.862;6.602;2023-07-22T03:05:07;13.40;99.90
66328;DHT22;53133;52.862;6.602;2023-07-22T03:07:40;13.40;99.90
66328;DHT22;53133;52.862;6.602;2023-07-22T03:10:06;13.40;99.90
66328;DHT22;53133;52.862;6.602;2023-07-22T03:12:33;13.40;99.90
66328;DHT22;53133;52.862;6.602;2023-07-22T03:14:59;13.40;99.90
66328;DHT22;53133;52.862;6.602;2023-07-22T03:17:24;13.50;99.90
66328;DHT22;53133;52.862;6.602;2023-07-22T03:19:50;13.50;99.90
66328;DHT22;53133;52.862;6.602;2023-07-22T03:22:16;13.50;99.90
66328;DHT22;53133;52.862;6.602;2023-07-22T03:24:43;13.50;99.90
66328;DHT22;53133;52.862;6.602;2023-07-22T03:27:09;13.60;99.90
66328;DHT22;53133;52.862;6.602;2023-07-22T03:29:36;13.70;99.90
66328;DHT22;53133;52.862;6.602;2023-07-22T03:32:01;13.70;99.90
66328;DHT22;53133;52.862;6.602;2023-07-22T03:34:27;13.70;99.90
66328;DHT22;53133;52.862;6.602;2023-07-22T03:36:53;13.70;99.90
66328;DHT22;53133;52.862;6.602;2023-07-22T03:39:19;13.70;99.90
66328;DHT22;53133;52.862;6.602;2023-07-22T03:41:45;13.70;99.90
66328;DHT22;53133;52.862;6.602;2023-07-22T03:44:11;13.80;99.90
66328;DHT22;53133;52.862;6.602;2023-07-22T03:46:37;13.80;99.90
66328;DHT22;53133;52.862;6.602;2023-07-22T03:49:03;13.80;99.90
66328;DHT22;53133;52.862;6.602;2023-07-22T03:51:29;13.90;99.90
66328;DHT22;53133;52.862;6.602;2023-07-22T03:53:55;13.90;99.90
66328;DHT22;53133;52.862;6.602;2023-07-22T03:56:21;13.90;99.90
66328;DHT22;53133;52.862;6.602;2023-07-22T03:58:49;13.90;99.90
66328;DHT22;53133;52.862;6.602;2023-07-22T04:01:15;14.00;99.90
66328;DHT22;53133;52.862;6.602;2023-07-22T04:03:40;14.00;99.90
66328;DHT22;53133;52.862;6.602;2023-07-22T04:06:06;14.00;99.90
66328;DHT22;53133;52.862;6.602;2023-07-22T04:08:32;14.00;99.90
66328;DHT22;53133;52.862;6.602;2023-07-22T04:10:57;14.10;99.90
66328;DHT22;53133;52.862;6.602;2023-07-22T04:13:25;14.10;99.90
66328;DHT22;53133;52.862;6.602;2023-07-22T04:15:51;14.20;99.90
66328;DHT22;53133;52.862;6.602;2023-07-22T04:18:18;14.20;99.90
66328;DHT22;53133;52.862;6.602;2023-07-22T04:20:44;14.20;99.90
66328;DHT22;53133;52.862;6.602;2023-07-22T04:23:10;14.20;99.90
66328;DHT22;53133;52.862;6.602;2023-07-22T04:25:43;14.20;99.90
66328;DHT22;53133;52.862;6.602;2023-07-22T04:28:09;14.30;99.90
66328;DHT22;53133;52.862;6.602;2023-07-22T04:30:35;14.30;99.90
66328;DHT22;53133;52.862;6.602;2023-07-22T04:33:02;14.30;99.90
66328;DHT22;53133;52.862;6.602;2023-07-22T04:35:31;14.40;99.90
66328;DHT22;53133;52.862;6.602;2023-07-22T04:37:58;14.40;99.90
66328;DHT22;53133;52.862;6.602;2023-07-22T04:40:23;14.40;99.90
66328;DHT22;53133;52.862;6.602;2023-07-22T04:42:50;14.50;99.90
66328;DHT22;53133;52.862;6.602;2023-07-22T04:45:17;14.50;99.90
66328;DHT22;53133;52.862;6.602;2023-07-22T04:47:44;14.50;99.90
66328;DHT22;53133;52.862;6.602;2023-07-22T04:50:13;14.50;99.90
66328;DHT22;53133;52.862;6.602;2023-07-22T04:52:42;14.50;99.90
66328;DHT22;53133;52.862;6.602;2023-07-22T04:55:08;14.50;99.90
66328;DHT22;53133;52.862;6.602;2023-07-22T04:57:35;14.50;99.90
66328;DHT22;53133;52.862;6.602;2023-07-22T05:00:02;14.60;99.90
66328;DHT22;53133;52.862;6.602;2023-07-22T05:02:32;14.60;99.90
66328;DHT22;53133;52.862;6.602;2023-07-22T05:04:58;14.60;99.90
66328;DHT22;53133;52.862;6.602;2023-07-22T05:07:23;14.60;99.90
66328;DHT22;53133;52.862;6.602;2023-07-22T05:09:50;14.60;99.90
66328;DHT22;53133;52.862;6.602;2023-07-22T05:12:17;14.60;99.90
66328;DHT22;53133;52.862;6.602;2023-07-22T05:14:44;14.70;99.90
66328;DHT22;53133;52.862;6.602;2023-07-22T05:17:09;14.70;99.90
66328;DHT22;53133;52.862;6.602;2023-07-22T05:19:35;14.70;99.90
66328;DHT22;53133;52.862;6.602;2023-07-22T05:22:00;14.70;99.90
66328;DHT22;53133;52.862;6.602;2023-07-22T05:24:26;14.70;99.90
66328;DHT22;53133;52.862;6.602;2023-07-22T05:26:52;14.70;99.90
66328;DHT22;53133;52.862;6.602;2023-07-22T05:29:17;14.70;99.90
66328;DHT22;53133;52.862;6.602;2023-07-22T05:31:43;14.70;99.90
66328;DHT22;53133;52.862;6.602;2023-07-22T05:34:09;14.70;99.90
66328;DHT22;53133;52.862;6.602;2023-07-22T05:36:35;14.70;99.90
66328;DHT22;53133;52.862;6.602;2023-07-22T05:39:00;14.80;99.90
66328;DHT22;53133;52.862;6.602;2023-07-22T05:41:26;14.80;99.90
66328;DHT22;53133;52.862;6.602;2023-07-22T05:43:52;14.70;99.90
66328;DHT22;53133;52.862;6.602;2023-07-22T05:46:17;14.80;99.90
66328;DHT22;53133;52.862;6.602;2023-07-22T05:48:43;14.80;99.90
66328;DHT22;53133;52.862;6.602;2023-07-22T05:51:09;14.80;99.90
66328;DHT22;53133;52.862;6.602;2023-07-22T05:53:35;14.70;99.90
66328;DHT22;53133;52.862;6.602;2023-07-22T05:56:00;14.80;99.90
66328;DHT22;53133;52.862;6.602;2023-07-22T05:58:26;14.80;99.90
66328;DHT22;53133;52.862;6.602;2023-07-22T06:00:53;14.80;99.90
66328;DHT22;53133;52.862;6.602;2023-07-22T06:03:19;14.80;99.90
66328;DHT22;53133;52.862;6.602;2023-07-22T06:05:46;14.80;99.90
66328;DHT22;53133;52.862;6.602;2023-07-22T06:08:12;14.80;99.90
66328;DHT22;53133;52.862;6.602;2023-07-22T06:10:39;14.80;99.90
66328;DHT22;53133;52.862;6.602;2023-07-22T06:13:04;14.80;99.90
66328;DHT22;53133;52.862;6.602;2023-07-22T06:15:30;14.80;99.90
66328;DHT22;53133;52.862;6.602;2023-07-22T06:17:56;14.90;99.90
66328;DHT22;53133;52.862;6.602;2023-07-22T06:20:21;14.90;99.90
66328;DHT22;53133;52.862;6.602;2023-07-22T06:22:47;14.90;99.90
66328;DHT22;53133;52.862;6.602;2023-07-22T06:25:12;15.00;99.90
66328;DHT22;53133;52.862;6.602;2023-07-22T06:27:38;15.00;99.90
66328;DHT22;53133;52.862;6.602;2023-07-22T06:30:04;15.00;99.90
66328;DHT22;53133;52.862;6.602;2023-07-22T06:32:30;15.00;99.90
66328;DHT22;53133;52.862;6.602;2023-07-22T06:34:59;15.10;99.90
66328;DHT22;53133;52.862;6.602;2023-07-22T06:37:24;15.10;99.90
66328;DHT22;53133;52.862;6.602;2023-07-22T06:39:51;15.20;99.90
66328;DHT22;53133;52.862;6.602;2023-07-22T06:42:17;15.20;99.90
66328;DHT22;53133;52.862;6.602;2023-07-22T06:44:43;15.30;99.90
66328;DHT22;53133;52.862;6.602;2023-07-22T06:47:09;15.30;99.90
66328;DHT22;53133;52.862;6.602;2023-07-22T06:49:34;15.40;99.90
66328;DHT22;53133;52.862;6.602;2023-07-22T06:52:00;15.40;99.90
66328;DHT22;53133;52.862;6.602;2023-07-22T06:54:26;15.50;99.90
66328;DHT22;53133;52.862;6.602;2023-07-22T06:56:53;15.60;99.90
66328;DHT22;53133;52.862;6.602;2023-07-22T06:59:18;15.60;99.90
66328;DHT22;53133;52.862;6.602;2023-07-22T07:01:44;15.70;99.90
66328;DHT22;53133;52.862;6.602;2023-07-22T07:04:09;15.70;99.90
66328;DHT22;53133;52.862;6.602;2023-07-22T07:06:36;15.70;99.90
66328;DHT22;53133;52.862;6.602;2023-07-22T07:09:04;15.80;99.90
66328;DHT22;53133;52.862;6.602;2023-07-22T07:11:31;15.80;99.90
66328;DHT22;53133;52.862;6.602;2023-07-22T07:13:57;15.90;99.90
66328;DHT22;53133;52.862;6.602;2023-07-22T07:16:27;15.90;99.90
66328;DHT22;53133;52.862;6.602;2023-07-22T07:18:53;16.00;99.90
66328;DHT22;53133;52.862;6.602;2023-07-22T07:21:20;16.10;99.90
66328;DHT22;53133;52.862;6.602;2023-07-22T07:23:45;16.10;99.90
66328;DHT22;53133;52.862;6.602;2023-07-22T07:26:11;16.10;99.90
66328;DHT22;53133;52.862;6.602;2023-07-22T07:28:37;16.20;99.90
66328;DHT22;53133;52.862;6.602;2023-07-22T07:31:03;16.20;99.90
66328;DHT22;53133;52.862;6.602;2023-07-22T07:33:29;16.20;99.90
66328;DHT22;53133;52.862;6.602;2023-07-22T07:35:54;16.20;99.90
66328;DHT22;53133;52.862;6.602;2023-07-22T07:38:20;16.20;99.90
66328;DHT22;53133;52.862;6.602;2023-07-22T07:40:45;16.20;99.90
66328;DHT22;53133;52.862;6.602;2023-07-22T07:43:11;16.30;99.90
66328;DHT22;53133;52.862;6.602;2023-07-22T07:45:38;16.30;99.90
66328;DHT22;53133;52.862;6.602;2023-07-22T07:48:05;16.30;99.90
66328;DHT22;53133;52.862;6.602;2023-07-22T07:50:31;16.40;99.90
66328;DHT22;53133;52.862;6.602;2023-07-22T07:52:57;16.40;99.90
66328;DHT22;53133;52.862;6.602;2023-07-22T07:55:23;16.50;99.90
66328;DHT22;53133;52.862;6.602;2023-07-22T07:57:48;16.60;99.90
66328;DHT22;53133;52.862;6.602;2023-07-22T08:00:14;16.60;99.90
66328;DHT22;53133;52.862;6.602;2023-07-22T08:02:40;16.70;99.90
66328;DHT22;53133;52.862;6.602;2023-07-22T08:05:06;16.80;99.90
66328;DHT22;53133;52.862;6.602;2023-07-22T08:07:31;16.90;99.90
66328;DHT22;53133;52.862;6.602;2023-07-22T08:09:57;16.90;99.90
66328;DHT22;53133;52.862;6.602;2023-07-22T08:12:23;17.00;99.90
66328;DHT22;53133;52.862;6.602;2023-07-22T08:14:49;17.00;99.90
66328;DHT22;53133;52.862;6.602;2023-07-22T08:17:15;17.00;99.90
66328;DHT22;53133;52.862;6.602;2023-07-22T08:19:40;17.10;99.90
66328;DHT22;53133;52.862;6.602;2023-07-22T08:22:06;17.20;99.90
66328;DHT22;53133;52.862;6.602;2023-07-22T08:24:32;17.20;99.90
66328;DHT22;53133;52.862;6.602;2023-07-22T08:26:58;17.20;99.90
66328;DHT22;53133;52.862;6.602;2023-07-22T08:29:24;17.30;99.90
66328;DHT22;53133;52.862;6.602;2023-07-22T08:31:50;17.30;99.90
66328;DHT22;53133;52.862;6.602;2023-07-22T08:34:15;17.30;99.90
66328;DHT22;53133;52.862;6.602;2023-07-22T08:36:41;17.40;99.90
66328;DHT22;53133;52.862;6.602;2023-07-22T08:39:07;17.40;99.90
66328;DHT22;53133;52.862;6.602;2023-07-22T08:41:33;17.40;99.90
66328;DHT22;53133;52.862;6.602;2023-07-22T08:44:00;17.40;99.90
66328;DHT22;53133;52.862;6.602;2023-07-22T08:46:28;17.40;99.90
66328;DHT22;53133;52.862;6.602;2023-07-22T08:48:56;17.40;99.90
66328;DHT22;53133;52.862;6.602;2023-07-22T08:51:25;17.40;99.90
66328;DHT22;53133;52.862;6.602;2023-07-22T08:53:56;17.40;99.90
66328;DHT22;53133;52.862;6.602;2023-07-22T08:56:25;17.50;99.90
66328;DHT22;53133;52.862;6.602;2023-07-22T08:58:55;17.50;99.90
66328;DHT22;53133;52.862;6.602;2023-07-22T09:01:22;17.50;99.90
66328;DHT22;53133;52.862;6.602;2023-07-22T09:03:49;17.50;99.90
66328;DHT22;53133;52.862;6.602;2023-07-22T09:06:21;17.40;99.90
66328;DHT22;53133;52.862;6.602;2023-07-22T09:08:47;17.40;99.90
66328;DHT22;53133;52.862;6.602;2023-07-22T09:11:13;17.30;99.90
66328;DHT22;53133;52.862;6.602;2023-07-22T09:13:40;17.30;99.90
66328;DHT22;53133;52.862;6.602;2023-07-22T09:16:08;17.30;99.90
66328;DHT22;53133;52.862;6.602;2023-07-22T09:18:33;17.30;99.90
66328;DHT22;53133;52.862;6.602;2023-07-22T09:21:02;17.20;99.90
66328;DHT22;53133;52.862;6.602;2023-07-22T09:23:35;17.20;99.90
66328;DHT22;53133;52.862;6.602;2023-07-22T09:26:14;17.10;99.90
66328;DHT22;53133;52.862;6.602;2023-07-22T09:28:58;17.10;99.90
66328;DHT22;53133;52.862;6.602;2023-07-22T09:31:27;17.20;99.90
66328;DHT22;53133;52.862;6.602;2023-07-22T09:34:10;17.20;99.90
66328;DHT22;53133;52.862;6.602;2023-07-22T09:37:05;17.20;99.90
66328;DHT22;53133;52.862;6.602;2023-07-22T09:39:31;17.30;99.90
66328;DHT22;53133;52.862;6.602;2023-07-22T09:41:56;17.20;99.90
66328;DHT22;53133;52.862;6.602;2023-07-22T09:44:29;17.20;99.90
66328;DHT22;53133;52.862;6.602;2023-07-22T09:46:55;17.20;99.90
66328;DHT22;53133;52.862;6.602;2023-07-22T09:49:20;17.20;99.90
66328;DHT22;53133;52.862;6.602;2023-07-22T09:51:46;17.10;99.90
66328;DHT22;53133;52.862;6.602;2023-07-22T09:54:12;17.20;99.90
66328;DHT22;53133;52.862;6.602;2023-07-22T09:56:49;17.20;99.90
66328;DHT22;53133;52.862;6.602;2023-07-22T09:59:18;17.30;99.90
66328;DHT22;53133;52.862;6.602;2023-07-22T10:01:44;17.30;99.90
66328;DHT22;53133;52.862;6.602;2023-07-22T10:04:12;17.30;99.90
66328;DHT22;53133;52.862;6.602;2023-07-22T10:06:41;17.40;99.90
66328;DHT22;53133;52.862;6.602;2023-07-22T10:09:10;17.50;99.90
66328;DHT22;53133;52.862;6.602;2023-07-22T10:11:37;17.60;99.90
66328;DHT22;53133;52.862;6.602;2023-07-22T10:14:05;17.60;99.90
66328;DHT22;53133;52.862;6.602;2023-07-22T10:16:31;17.60;99.90
66328;DHT22;53133;52.862;6.602;2023-07-22T10:18:58;17.60;99.90
66328;DHT22;53133;52.862;6.602;2023-07-22T10:21:25;17.60;99.90
66328;DHT22;53133;52.862;6.602;2023-07-22T10:23:51;17.50;99.90
66328;DHT22;53133;52.862;6.602;2023-07-22T10:26:18;17.50;99.90
66328;DHT22;53133;52.862;6.602;2023-07-22T10:28:46;17.50;99.90
66328;DHT22;53133;52.862;6.602;2023-07-22T10:31:16;17.50;99.90
66328;DHT22;53133;52.862;6.602;2023-07-22T10:33:46;17.50;99.90
66328;DHT22;53133;52.862;6.602;2023-07-22T10:36:16;17.40;99.90
66328;DHT22;53133;52.862;6.602;2023-07-22T10:38:42;17.40;99.90
66328;DHT22;53133;52.862;6.602;2023-07-22T10:41:13;17.40;99.90
66328;DHT22;53133;52.862;6.602;2023-07-22T10:43:39;17.40;99.90
66328;DHT22;53133;52.862;6.602;2023-07-22T10:46:10;17.40;99.90
66328;DHT22;53133;52.862;6.602;2023-07-22T10:48:38;17.40;99.90
66328;DHT22;53133;52.862;6.602;2023-07-22T10:51:06;17.40;99.90
66328;DHT22;53133;52.862;6.602;2023-07-22T10:53:32;17.40;99.90
66328;DHT22;53133;52.862;6.602;2023-07-22T10:56:11;17.40;99.90
66328;DHT22;53133;52.862;6.602;2023-07-22T11:12:18;17.20;99.90
66328;DHT22;53133;52.862;6.602;2023-07-22T11:14:49;17.20;99.90
66328;DHT22;53133;52.862;6.602;2023-07-22T11:17:15;17.10;99.90
66328;DHT22;53133;52.862;6.602;2023-07-22T11:19:41;17.00;99.90
66328;DHT22;53133;52.862;6.602;2023-07-22T11:22:07;16.90;99.90
66328;DHT22;53133;52.862;6.602;2023-07-22T11:24:33;16.70;99.90
66328;DHT22;53133;52.862;6.602;2023-07-22T11:27:07;16.50;99.90
66328;DHT22;53133;52.862;6.602;2023-07-22T11:29:34;16.30;99.90
66328;DHT22;53133;52.862;6.602;2023-07-22T11:31:59;16.20;99.90
66328;DHT22;53133;52.862;6.602;2023-07-22T11:34:25;16.20;99.90
66328;DHT22;53133;52.862;6.602;2023-07-22T11:36:52;16.10;99.90
66328;DHT22;53133;52.862;6.602;2023-07-22T11:39:22;16.00;99.90
66328;DHT22;53133;52.862;6.602;2023-07-22T11:41:49;15.90;99.90
66328;DHT22;53133;52.862;6.602;2023-07-22T11:44:18;16.00;99.90
66328;DHT22;53133;52.862;6.602;2023-07-22T11:46:47;16.00;99.90
66328;DHT22;53133;52.862;6.602;2023-07-22T11:49:46;16.10;99.90
66328;DHT22;53133;52.862;6.602;2023-07-22T11:52:14;16.10;99.90
66328;DHT22;53133;52.862;6.602;2023-07-22T11:54:42;16.10;99.90
66328;DHT22;53133;52.862;6.602;2023-07-22T11:57:23;16.00;99.90
66328;DHT22;53133;52.862;6.602;2023-07-22T11:59:51;16.10;99.90
66328;DHT22;53133;52.862;6.602;2023-07-22T12:02:21;16.20;99.90
66328;DHT22;53133;52.862;6.602;2023-07-22T12:04:58;16.20;99.90
66328;DHT22;53133;52.862;6.602;2023-07-22T12:07:26;16.20;99.90
66328;DHT22;53133;52.862;6.602;2023-07-22T12:09:52;16.20;99.90
66328;DHT22;53133;52.862;6.602;2023-07-22T12:12:18;16.20;99.90
66328;DHT22;53133;52.862;6.602;2023-07-22T12:14:44;16.20;99.90
66328;DHT22;53133;52.862;6.602;2023-07-22T12:17:10;16.30;99.90
66328;DHT22;53133;52.862;6.602;2023-07-22T12:19:35;16.30;99.90
66328;DHT22;53133;52.862;6.602;2023-07-22T12:22:01;16.30;99.90
66328;DHT22;53133;52.862;6.602;2023-07-22T12:24:27;16.30;99.90
66328;DHT22;53133;52.862;6.602;2023-07-22T12:26:53;16.30;99.90
66328;DHT22;53133;52.862;6.602;2023-07-22T12:29:19;16.30;99.90
66328;DHT22;53133;52.862;6.602;2023-07-22T12:31:45;16.40;99.90
66328;DHT22;53133;52.862;6.602;2023-07-22T12:34:10;16.40;99.90
66328;DHT22;53133;52.862;6.602;2023-07-22T12:36:36;16.40;99.90
66328;DHT22;53133;52.862;6.602;2023-07-22T12:39:02;16.40;99.90
66328;DHT22;53133;52.862;6.602;2023-07-22T12:41:28;16.40;99.90
66328;DHT22;53133;52.862;6.602;2023-07-22T12:43:54;16.40;99.90
66328;DHT22;53133;52.862;6.602;2023-07-22T12:46:19;16.30;99.90
66328;DHT22;53133;52.862;6.602;2023-07-22T12:48:45;16.30;99.90
66328;DHT22;53133;52.862;6.602;2023-07-22T12:51:11;16.30;99.90
66328;DHT22;53133;52.862;6.602;2023-07-22T12:53:36;16.30;99.90
66328;DHT22;53133;52.862;6.602;2023-07-22T12:56:02;16.20;99.90
66328;DHT22;53133;52.862;6.602;2023-07-22T12:58:29;16.20;99.90
66328;DHT22;53133;52.862;6.602;2023-07-22T13:00:54;16.20;99.90
66328;DHT22;53133;52.862;6.602;2023-07-22T13:03:20;16.20;99.90
66328;DHT22;53133;52.862;6.602;2023-07-22T13:05:46;16.20;99.90
66328;DHT22;53133;52.862;6.602;2023-07-22T13:08:11;16.20;99.90
66328;DHT22;53133;52.862;6.602;2023-07-22T13:10:37;16.10;99.90
66328;DHT22;53133;52.862;6.602;2023-07-22T13:13:05;16.10;99.90
66328;DHT22;53133;52.862;6.602;2023-07-22T13:15:31;16.10;99.90
66328;DHT22;53133;52.862;6.602;2023-07-22T13:17:57;16.10;99.90
66328;DHT22;53133;52.862;6.602;2023-07-22T13:20:23;16.10;99.90
66328;DHT22;53133;52.862;6.602;2023-07-22T13:22:48;16.10;99.90
66328;DHT22;53133;52.862;6.602;2023-07-22T13:25:14;16.10;99.90
66328;DHT22;53133;52.862;6.602;2023-07-22T13:27:39;16.10;99.90
66328;DHT22;53133;52.862;6.602;2023-07-22T13:30:07;16.10;99.90
66328;DHT22;53133;52.862;6.602;2023-07-22T13:32:33;16.20;99.90
66328;DHT22;53133;52.862;6.602;2023-07-22T13:34:59;16.20;99.90
66328;DHT22;53133;52.862;6.602;2023-07-22T13:37:25;16.20;99.90
66328;DHT22;53133;52.862;6.602;2023-07-22T13:39:50;16.20;99.90
66328;DHT22;53133;52.862;6.602;2023-07-22T13:42:16;16.20;99.90
66328;DHT22;53133;52.862;6.602;2023-07-22T13:44:42;16.30;99.90
66328;DHT22;53133;52.862;6.602;2023-07-22T13:47:07;16.40;99.90
66328;DHT22;53133;52.862;6.602;2023-07-22T13:49:33;16.40;99.90
66328;DHT22;53133;52.862;6.602;2023-07-22T13:51:58;16.40;99.90
66328;DHT22;53133;52.862;6.602;2023-07-22T13:54:24;16.50;99.90
66328;DHT22;53133;52.862;6.602;2023-07-22T13:56:49;16.50;99.90
66328;DHT22;53133;52.862;6.602;2023-07-22T13:59:15;16.60;99.90
66328;DHT22;53133;52.862;6.602;2023-07-22T14:01:41;16.60;99.90
66328;DHT22;53133;52.862;6.602;2023-07-22T14:04:06;16.70;99.90
66328;DHT22;53133;52.862;6.602;2023-07-22T14:06:32;16.70;99.90
66328;DHT22;53133;52.862;6.602;2023-07-22T14:08:58;16.80;99.90
66328;DHT22;53133;52.862;6.602;2023-07-22T14:11:24;16.80;99.90
66328;DHT22;53133;52.862;6.602;2023-07-22T14:13:49;16.80;99.90
66328;DHT22;53133;52.862;6.602;2023-07-22T14:16:17;16.80;99.90
66328;DHT22;53133;52.862;6.602;2023-07-22T14:18:43;16.80;99.90
66328;DHT22;53133;52.862;6.602;2023-07-22T14:21:10;16.80;99.90
66328;DHT22;53133;52.862;6.602;2023-07-22T14:23:39;16.80;99.90
66328;DHT22;53133;52.862;6.602;2023-07-22T14:26:05;16.90;99.90
66328;DHT22;53133;52.862;6.602;2023-07-22T14:28:31;16.90;99.90
66328;DHT22;53133;52.862;6.602;2023-07-22T14:30:56;16.90;99.90
66328;DHT22;53133;52.862;6.602;2023-07-22T14:33:22;17.00;99.90
66328;DHT22;53133;52.862;6.602;2023-07-22T14:35:49;17.00;99.90
66328;DHT22;53133;52.862;6.602;2023-07-22T14:38:15;17.00;99.90
66328;DHT22;53133;52.862;6.602;2023-07-22T14:40:41;17.10;99.90
66328;DHT22;53133;52.862;6.602;2023-07-22T14:43:06;17.10;99.90
66328;DHT22;53133;52.862;6.602;2023-07-22T14:45:32;17.10;99.90
66328;DHT22;53133;52.862;6.602;2023-07-22T14:47:58;17.10;99.90
66328;DHT22;53133;52.862;6.602;2023-07-22T14:50:24;17.10;99.90
66328;DHT22;53133;52.862;6.602;2023-07-22T14:52:50;17.10;99.90
66328;DHT22;53133;52.862;6.602;2023-07-22T14:55:16;17.00;99.90
66328;DHT22;53133;52.862;6.602;2023-07-22T14:57:41;16.90;99.90
66328;DHT22;53133;52.862;6.602;2023-07-22T15:00:07;16.90;99.90
66328;DHT22;53133;52.862;6.602;2023-07-22T15:02:33;16.80;99.90
66328;DHT22;53133;52.862;6.602;2023-07-22T15:04:59;16.80;99.90
66328;DHT22;53133;52.862;6.602;2023-07-22T15:07:24;16.80;99.90
66328;DHT22;53133;52.862;6.602;2023-07-22T15:09:51;16.80;99.90
66328;DHT22;53133;52.862;6.602;2023-07-22T15:12:18;16.70;99.90
66328;DHT22;53133;52.862;6.602;2023-07-22T15:14:44;16.70;99.90
66328;DHT22;53133;52.862;6.602;2023-07-22T15:17:10;16.70;99.90
66328;DHT22;53133;52.862;6.602;2023-07-22T15:19:35;16.70;99.90
66328;DHT22;53133;52.862;6.602;2023-07-22T15:22:01;16.60;99.90
66328;DHT22;53133;52.862;6.602;2023-07-22T15:24:28;16.60;99.90
66328;DHT22;53133;52.862;6.602;2023-07-22T15:26:54;16.60;99.90
66328;DHT22;53133;52.862;6.602;2023-07-22T15:29:19;16.60;99.90
66328;DHT22;53133;52.862;6.602;2023-07-22T15:31:45;16.60;99.90
66328;DHT22;53133;52.862;6.602;2023-07-22T15:34:11;16.60;99.90
66328;DHT22;53133;52.862;6.602;2023-07-22T15:36:36;16.50;99.90
66328;DHT22;53133;52.862;6.602;2023-07-22T15:39:02;16.50;99.90
66328;DHT22;53133;52.862;6.602;2023-07-22T15:41:28;16.50;99.90